createdAt,value
2019-04-10T00:02:58.210Z,14.87
2019-04-10T00:08:04.023Z,17.87
2019-04-10T00:13:10.171Z,18.10
2019-04-10T00:18:15.904Z,16.20
2019-04-10T00:23:21.252Z,17.10
2019-04-10T00:28:26.300Z,14.33
2019-04-10T00:33:32.591Z,10.77
2019-04-10T00:38:37.941Z,10.47
2019-04-10T00:43:43.459Z,9.43
2019-04-10T00:48:48.396Z,8.57
2019-04-10T00:53:53.883Z,12.07
2019-04-10T00:58:59.604Z,11.17
2019-04-10T01:04:04.491Z,12.30
2019-04-10T01:09:11.213Z,9.67
2019-04-10T01:14:16.131Z,7.43
2019-04-10T01:19:20.928Z,9.87
2019-04-10T01:24:25.809Z,10.47
2019-04-10T01:30:07.223Z,11.13
2019-04-10T01:35:12.784Z,12.27
2019-04-10T01:40:17.715Z,10.47
2019-04-10T01:45:22.546Z,13.47
2019-04-10T01:50:28.335Z,15.67
2019-04-10T01:55:34.266Z,15.53
2019-04-10T02:00:41.733Z,13.63
2019-04-10T02:05:47.111Z,19.27
2019-04-10T02:10:52.273Z,17.33
2019-04-10T02:15:57.263Z,13.83
2019-04-10T02:21:03.246Z,16.53
2019-04-10T02:26:09.457Z,14.23
2019-04-10T02:31:14.702Z,9.63
2019-04-10T02:36:21.194Z,10.10
2019-04-10T02:41:27.814Z,10.67
2019-04-10T02:46:33.170Z,7.83
2019-04-10T02:51:38.925Z,12.37
2019-04-10T02:56:45.608Z,12.17
2019-04-10T03:01:51.843Z,10.87
2019-04-10T03:06:57.657Z,15.40
2019-04-10T03:12:03.715Z,12.83
2019-04-10T03:17:09.919Z,9.03
2019-04-10T03:22:15.096Z,7.70
2019-04-10T03:27:20.566Z,8.60
2019-04-10T03:32:31.004Z,9.73
2019-04-10T03:37:34.162Z,7.87
2019-04-10T03:42:39.230Z,13.63
2019-04-10T03:47:44.318Z,8.50
2019-04-10T03:52:49.614Z,11.60
2019-04-10T03:57:55.301Z,15.83
2019-04-10T04:03:00.288Z,8.37
2019-04-10T04:08:05.530Z,8.13
2019-04-10T04:13:11.141Z,11.63
2019-04-10T04:18:17.108Z,10.43
2019-04-10T04:23:22.174Z,6.30
2019-04-10T04:28:27.662Z,9.73
2019-04-10T04:33:34.117Z,7.30
2019-04-10T04:38:39.143Z,8.70
2019-04-10T04:43:46.014Z,11.47
2019-04-10T04:48:50.660Z,8.67
2019-04-10T04:53:55.626Z,10.50
2019-04-10T04:59:01.474Z,10.10
2019-04-10T05:04:06.791Z,9.20
2019-04-10T05:09:11.604Z,15.23
2019-04-10T05:14:17.399Z,13.27
2019-04-10T05:19:22.647Z,14.30
2019-04-10T05:24:27.954Z,11.33
2019-04-10T05:29:33.070Z,10.50
2019-04-10T05:34:38.333Z,16.97
2019-04-10T05:39:49.133Z,17.13
2019-04-10T05:44:50.180Z,13.13
2019-04-10T05:49:56.292Z,11.97
2019-04-10T05:55:02.196Z,27.13
2019-04-10T06:00:08.446Z,9.97
2019-04-10T06:05:14.003Z,17.57
2019-04-10T06:10:19.648Z,10.13
2019-04-10T06:15:24.566Z,14.30
2019-04-10T06:20:29.413Z,10.47
2019-04-10T06:25:38.158Z,10.10
2019-04-10T06:30:41.897Z,10.77
2019-04-10T06:35:47.229Z,10.93
2019-04-10T06:40:52.400Z,9.50
2019-04-10T06:45:57.926Z,12.17
2019-04-10T06:51:04.032Z,6.57
2019-04-10T06:56:09.911Z,7.37
2019-04-10T07:01:16.548Z,8.03
2019-04-10T07:06:22.762Z,12.27
2019-04-10T07:11:30.857Z,10.40
2019-04-10T07:16:35.733Z,10.20
2019-04-10T07:21:42.671Z,13.83
2019-04-10T07:26:50.489Z,7.63
2019-04-10T07:31:55.577Z,12.43
2019-04-10T07:37:00.460Z,7.17
2019-04-10T07:42:06.214Z,14.60
2019-04-10T07:47:11.235Z,8.17
2019-04-10T07:52:17.125Z,9.97
2019-04-10T07:57:22.667Z,9.00
2019-04-10T08:02:27.649Z,6.20
2019-04-10T08:07:35.731Z,9.53
2019-04-10T08:12:45.889Z,10.53
2019-04-10T08:17:49.276Z,6.33
2019-04-10T08:22:53.314Z,12.23
2019-04-10T08:27:58.610Z,6.23
2019-04-10T08:33:04.811Z,5.30
2019-04-10T08:38:10.319Z,3.90
2019-04-10T08:43:15.839Z,5.53
2019-04-10T08:48:21.940Z,6.00
2019-04-10T08:53:28.661Z,4.90
2019-04-10T08:58:33.554Z,7.17
2019-04-10T09:03:39.225Z,7.07
2019-04-10T09:08:45.339Z,8.43
2019-04-10T09:13:50.222Z,6.70
2019-04-10T09:18:55.764Z,6.37
2019-04-10T09:24:00.787Z,9.80
2019-04-10T09:29:06.751Z,5.13
2019-04-10T09:34:11.911Z,7.17
2019-04-10T09:39:17.219Z,11.13
2019-04-10T09:44:25.670Z,5.37
2019-04-10T09:49:38.222Z,5.77
2019-04-10T09:54:38.268Z,6.43
2019-04-10T09:59:45.563Z,6.23
2019-04-10T10:04:51.133Z,6.23
2019-04-10T10:09:59.295Z,8.47
2019-04-10T10:15:03.526Z,7.10
2019-04-10T10:20:08.688Z,10.77
2019-04-10T10:25:13.667Z,5.13
2019-04-10T10:30:19.691Z,11.30
2019-04-10T10:35:25.207Z,8.33
2019-04-10T10:40:30.292Z,7.33
2019-04-10T10:45:35.271Z,7.60
2019-04-10T10:50:41.510Z,7.90
2019-04-10T10:55:47.587Z,6.33
2019-04-10T11:00:53.588Z,8.07
2019-04-10T11:06:00.361Z,11.50
2019-04-10T11:11:06.253Z,6.90
2019-04-10T11:16:12.966Z,6.27
2019-04-10T11:21:18.292Z,6.17
2019-04-10T11:26:24.246Z,6.27
2019-04-10T11:31:31.365Z,11.37
2019-04-10T11:36:37.552Z,8.73
2019-04-10T11:41:43.389Z,5.73
2019-04-10T11:46:49.399Z,5.67
2019-04-10T11:51:56.713Z,8.27
2019-04-10T12:02:10.131Z,5.60
2019-04-10T12:07:49.203Z,5.57
2019-04-10T12:12:21.866Z,12.50
2019-04-10T12:17:27.615Z,6.20
2019-04-10T12:22:33.763Z,6.87
2019-04-10T12:27:39.074Z,6.63
2019-04-10T12:32:45.977Z,7.83
2019-04-10T12:37:59.451Z,9.00
2019-04-10T12:42:58.717Z,10.53
2019-04-10T12:48:04.123Z,6.07
2019-04-10T12:53:09.370Z,8.27
2019-04-10T12:58:19.343Z,10.60
2019-04-10T13:03:29.528Z,7.10
2019-04-10T13:08:52.514Z,6.73
2019-04-10T13:13:42.913Z,14.57
2019-04-10T13:18:51.044Z,10.87
2019-04-10T13:23:57.250Z,9.33
2019-04-10T13:29:03.621Z,6.10
2019-04-10T13:34:09.016Z,5.97
2019-04-10T13:39:17.120Z,12.43
2019-04-10T13:44:20.948Z,6.97
2019-04-10T13:49:26.184Z,10.47
2019-04-10T13:54:31.149Z,9.83
2019-04-10T13:59:37.247Z,16.13
2019-04-10T14:04:42.961Z,9.40
2019-04-10T14:09:51.391Z,10.57
2019-04-10T14:14:55.777Z,15.57
2019-04-10T14:20:00.962Z,7.50
2019-04-10T14:25:09.499Z,13.87
2019-04-10T14:30:16.262Z,7.77
2019-04-10T14:35:21.280Z,7.53
2019-04-10T14:40:26.673Z,10.47
2019-04-10T14:45:31.780Z,8.77
2019-04-10T14:50:37.806Z,10.83
2019-04-10T14:55:43.903Z,8.67
2019-04-10T15:00:50.277Z,10.40
2019-04-10T15:05:57.014Z,13.97
2019-04-10T15:11:02.521Z,8.73
2019-04-10T15:16:07.632Z,10.27
2019-04-10T15:21:12.501Z,9.63
2019-04-10T15:26:17.712Z,10.07
2019-04-10T15:31:26.043Z,9.63
2019-04-10T15:36:29.444Z,11.33
2019-04-10T15:41:34.905Z,10.27
2019-04-10T15:46:41.466Z,12.63
2019-04-10T15:51:47.512Z,14.23
2019-04-10T15:56:54.072Z,12.13
2019-04-10T16:01:59.488Z,10.07
2019-04-10T16:07:06.154Z,9.17
2019-04-10T16:12:14.503Z,11.87
2019-04-10T16:17:23.943Z,9.63
2019-04-10T16:22:31.193Z,8.37
2019-04-10T16:27:36.983Z,9.43
2019-04-10T16:32:43.928Z,13.77
2019-04-10T16:37:49.517Z,13.67
2019-04-10T16:42:55.254Z,11.60
2019-04-10T16:48:00.808Z,18.40
2019-04-10T16:53:06.055Z,16.47
2019-04-10T16:58:11.691Z,16.90
2019-04-10T17:03:17.613Z,14.75
2019-04-10T17:08:23.739Z,16.63
2019-04-10T17:13:28.858Z,10.77
2019-04-10T17:18:35.056Z,12.57
2019-04-10T17:23:40.678Z,12.03
2019-04-10T17:28:45.820Z,13.10
2019-04-10T17:33:52.338Z,12.73
2019-04-10T17:38:58.675Z,16.33
2019-04-10T17:44:03.787Z,14.97
2019-04-10T17:49:09.113Z,16.20
2019-04-10T17:54:15.447Z,13.17
2019-04-10T17:59:20.559Z,17.93
2019-04-10T18:04:26.361Z,15.10
2019-04-10T18:09:32.736Z,12.90
2019-04-10T18:14:39.862Z,34.73
2019-04-10T18:19:44.513Z,21.97
2019-04-10T18:24:49.570Z,23.77
2019-04-10T18:29:55.197Z,25.83
2019-04-10T18:35:00.450Z,17.80
2019-04-10T18:40:07.543Z,20.57
2019-04-10T18:45:13.446Z,34.67
2019-04-10T18:50:18.337Z,36.93
2019-04-10T18:55:23.222Z,48.90
2019-04-10T19:00:30.254Z,39.17
2019-04-10T19:05:38.278Z,36.63
2019-04-10T19:10:43.436Z,102.00
2019-04-10T19:15:48.958Z,119.53
2019-04-10T19:20:55.576Z,115.43
2019-04-10T19:26:00.971Z,128.67
2019-04-10T19:31:11.880Z,124.77
2019-04-10T19:36:15.288Z,125.93
2019-04-10T19:41:28.058Z,80.90
2019-04-10T19:46:29.249Z,123.07
2019-04-10T19:51:34.415Z,138.83
2019-04-10T19:56:40.402Z,144.87
2019-04-10T20:01:46.473Z,275.27
2019-04-10T20:06:52.402Z,145.30
2019-04-10T20:11:58.658Z,101.70
2019-04-10T20:17:05.939Z,92.67
2019-04-10T20:22:11.173Z,176.47
2019-04-10T20:27:16.284Z,273.10
2019-04-10T20:32:21.796Z,183.90
2019-04-10T20:37:27.011Z,199.30
2019-04-10T20:42:32.207Z,95.97
2019-04-10T20:47:37.451Z,102.33
2019-04-10T20:52:43.236Z,101.27
2019-04-10T20:57:48.090Z,74.70
2019-04-10T21:02:53.034Z,70.73
2019-04-10T21:08:02.129Z,86.43
2019-04-10T21:13:08.575Z,84.23
2019-04-10T21:18:13.654Z,125.50
2019-04-10T21:23:19.399Z,306.03
2019-04-10T21:28:24.558Z,192.87
2019-04-10T21:33:32.235Z,127.90
2019-04-10T21:38:38.666Z,108.37
2019-04-10T21:43:43.820Z,161.37
2019-04-10T21:48:48.928Z,128.37
2019-04-10T21:53:54.313Z,168.33
2019-04-10T21:58:59.309Z,118.00
2019-04-10T22:04:06.161Z,114.23
2019-04-10T22:09:11.105Z,76.80
2019-04-10T22:14:19.242Z,108.27
2019-04-10T22:19:24.517Z,82.40
2019-04-10T22:24:29.850Z,79.73
2019-04-10T22:29:36.886Z,76.77
2019-04-10T22:34:42.165Z,89.43
2019-04-10T22:39:48.147Z,79.37
2019-04-10T22:44:53.883Z,68.60
2019-04-10T22:50:00.665Z,64.70
2019-04-10T22:55:07.133Z,62.97
2019-04-10T23:00:15.928Z,61.63
2019-04-10T23:05:22.691Z,60.03
2019-04-10T23:10:27.480Z,66.57
2019-04-10T23:15:33.504Z,62.77
2019-04-10T23:20:39.709Z,83.17
2019-04-10T23:25:45.123Z,68.53
2019-04-10T23:31:10.424Z,67.53
2019-04-10T23:36:16.050Z,62.23
2019-04-10T23:41:21.269Z,58.63
2019-04-10T23:46:26.433Z,58.13
2019-04-10T23:51:31.563Z,64.93
2019-04-10T23:56:37.838Z,66.90
